Flugplatz Fassberg Airport

Bericht für ETHS

vom 07.03. um 01:20 UTC

Wind 5 kt aus 270°

Sichtweite 10 km oder mehr

aufgelockert bewölkt in 4000 ft

Temperatur 0.0°C

Taupunkt -2.0°C

Luftfeuchtigkeit 86%

Luftdruck 1026 hPa

ETHS 070120Z 27005KT 9999 SCT040 00/M02 Q1026 BLU+
Keine Prognose (TAF) verfügbar.
Impressum